Pechenga, Russia
Current Conditions -  °F | °C
As of 8:20 AM on Sunday 21 Dec 2014 (Local Time) from ENKR Reporting Station
Scattered Clouds Scattered Clouds  
Wind Chill: 20°   Ceiling: Unl
Heat Index: 28°   Visibility: 6mi
Dew Point: 23°   Wind: 9mph
Humidity: 80%   Direction: 30°NNE
Pressure: 29.21"   Gusts: NA
Location:  69.55°N, 31.23°E
Report Text: ENKR 210520Z AUTO 03008KT 9999NDV FEW018/// SCT030/// M02/M05 Q0989 RMK WIND 731FT 05016KT
Loading
Personal Weather Stations






























Interactive Weather Map New forecast layout! Learn more

10-Day Weather Forecast

Advertisements
Track Severe Weather on mobile